sensor_id;sensor_type;location;lat;lon;timestamp;P1;durP1;ratioP1;P2;durP2;ratioP2
32788;SDS011;19141;48.980;8.410;2024-02-26T05:22:32;0.47;;;0.40;;
32788;SDS011;19141;48.980;8.410;2024-02-26T05:24:57;0.40;;;0.40;;
32788;SDS011;19141;48.980;8.410;2024-02-26T05:27:23;1.02;;;0.52;;
32788;SDS011;19141;48.980;8.410;2024-02-26T05:29:49;0.55;;;0.50;;
32788;SDS011;19141;48.980;8.410;2024-02-26T05:32:14;0.32;;;0.32;;
32788;SDS011;19141;48.980;8.410;2024-02-26T05:34:40;1.63;;;1.10;;
32788;SDS011;19141;48.980;8.410;2024-02-26T05:37:06;0.38;;;0.38;;
32788;SDS011;19141;48.980;8.410;2024-02-26T05:39:32;0.40;;;0.40;;
32788;SDS011;19141;48.980;8.410;2024-02-26T05:41:57;0.30;;;0.30;;
32788;SDS011;19141;48.980;8.410;2024-02-26T05:44:25;0.38;;;0.38;;
32788;SDS011;19141;48.980;8.410;2024-02-26T05:46:52;0.40;;;0.40;;
32788;SDS011;19141;48.980;8.410;2024-02-26T05:49:18;0.50;;;0.50;;
32788;SDS011;19141;48.980;8.410;2024-02-26T05:51:43;0.30;;;0.30;;
32788;SDS011;19141;48.980;8.410;2024-02-26T05:54:09;0.50;;;0.45;;
32788;SDS011;19141;48.980;8.410;2024-02-26T05:56:35;0.50;;;0.50;;
32788;SDS011;19141;48.980;8.410;2024-02-26T05:59:00;0.30;;;0.30;;
32788;SDS011;19141;48.980;8.410;2024-02-26T06:01:26;1.85;;;0.50;;
32788;SDS011;19141;48.980;8.410;2024-02-26T06:03:51;0.50;;;0.40;;
32788;SDS011;19141;48.980;8.410;2024-02-26T06:06:16;0.30;;;0.30;;
32788;SDS011;19141;48.980;8.410;2024-02-26T06:08:42;0.50;;;0.50;;
32788;SDS011;19141;48.980;8.410;2024-02-26T06:11:08;0.40;;;0.40;;
32788;SDS011;19141;48.980;8.410;2024-02-26T06:13:34;0.40;;;0.40;;
32788;SDS011;19141;48.980;8.410;2024-02-26T06:16:00;0.75;;;0.40;;
32788;SDS011;19141;48.980;8.410;2024-02-26T06:18:26;0.43;;;0.38;;
32788;SDS011;19141;48.980;8.410;2024-02-26T06:20:51;0.47;;;0.45;;
32788;SDS011;19141;48.980;8.410;2024-02-26T06:23:17;0.55;;;0.55;;
32788;SDS011;19141;48.980;8.410;2024-02-26T06:25:42;0.50;;;0.50;;
32788;SDS011;19141;48.980;8.410;2024-02-26T06:28:08;0.40;;;0.40;;
32788;SDS011;19141;48.980;8.410;2024-02-26T06:30:34;0.65;;;0.50;;
32788;SDS011;19141;48.980;8.410;2024-02-26T06:32:59;0.40;;;0.40;;
32788;SDS011;19141;48.980;8.410;2024-02-26T06:35:25;0.85;;;0.50;;
32788;SDS011;19141;48.980;8.410;2024-02-26T06:37:50;0.47;;;0.47;;
32788;SDS011;19141;48.980;8.410;2024-02-26T06:40:18;1.13;;;0.60;;
32788;SDS011;19141;48.980;8.410;2024-02-26T06:42:44;0.40;;;0.40;;
32788;SDS011;19141;48.980;8.410;2024-02-26T06:45:09;0.43;;;0.43;;
32788;SDS011;19141;48.980;8.410;2024-02-26T06:47:35;1.75;;;1.10;;
32788;SDS011;19141;48.980;8.410;2024-02-26T06:50:00;1.10;;;0.50;;
32788;SDS011;19141;48.980;8.410;2024-02-26T06:52:26;0.68;;;0.68;;
32788;SDS011;19141;48.980;8.410;2024-02-26T06:54:52;0.88;;;0.77;;
32788;SDS011;19141;48.980;8.410;2024-02-26T06:57:19;0.80;;;0.77;;
32788;SDS011;19141;48.980;8.410;2024-02-26T06:59:45;1.08;;;0.95;;
32788;SDS011;19141;48.980;8.410;2024-02-26T07:02:12;0.65;;;0.60;;
32788;SDS011;19141;48.980;8.410;2024-02-26T07:04:38;0.90;;;0.70;;
32788;SDS011;19141;48.980;8.410;2024-02-26T07:07:03;0.40;;;0.40;;
32788;SDS011;19141;48.980;8.410;2024-02-26T07:09:29;0.95;;;0.70;;
32788;SDS011;19141;48.980;8.410;2024-02-26T07:11:54;0.95;;;0.95;;
32788;SDS011;19141;48.980;8.410;2024-02-26T07:14:20;0.70;;;0.63;;
32788;SDS011;19141;48.980;8.410;2024-02-26T07:16:45;0.98;;;0.68;;
32788;SDS011;19141;48.980;8.410;2024-02-26T07:19:11;0.82;;;0.55;;
32788;SDS011;19141;48.980;8.410;2024-02-26T07:21:36;1.05;;;0.70;;
32788;SDS011;19141;48.980;8.410;2024-02-26T07:24:02;0.60;;;0.50;;
32788;SDS011;19141;48.980;8.410;2024-02-26T07:26:27;1.00;;;0.90;;
32788;SDS011;19141;48.980;8.410;2024-02-26T07:28:55;1.50;;;1.40;;
32788;SDS011;19141;48.980;8.410;2024-02-26T07:31:20;0.98;;;0.80;;
32788;SDS011;19141;48.980;8.410;2024-02-26T07:33:46;3.20;;;0.60;;
32788;SDS011;19141;48.980;8.410;2024-02-26T07:36:11;1.27;;;0.70;;
32788;SDS011;19141;48.980;8.410;2024-02-26T07:38:37;0.70;;;0.70;;
32788;SDS011;19141;48.980;8.410;2024-02-26T07:41:02;1.38;;;0.90;;
32788;SDS011;19141;48.980;8.410;2024-02-26T07:43:28;0.77;;;0.70;;
32788;SDS011;19141;48.980;8.410;2024-02-26T07:45:53;1.25;;;0.82;;
32788;SDS011;19141;48.980;8.410;2024-02-26T07:48:19;0.60;;;0.60;;
32788;SDS011;19141;48.980;8.410;2024-02-26T07:50:44;0.90;;;0.70;;
32788;SDS011;19141;48.980;8.410;2024-02-26T07:53:10;0.85;;;0.80;;
32788;SDS011;19141;48.980;8.410;2024-02-26T07:55:35;0.60;;;0.60;;
32788;SDS011;19141;48.980;8.410;2024-02-26T07:58:00;1.10;;;0.90;;
32788;SDS011;19141;48.980;8.410;2024-02-26T08:00:26;0.60;;;0.60;;
32788;SDS011;19141;48.980;8.410;2024-02-26T08:02:51;0.57;;;0.55;;
32788;SDS011;19141;48.980;8.410;2024-02-26T08:05:17;1.40;;;0.70;;
32788;SDS011;19141;48.980;8.410;2024-02-26T08:07:42;1.42;;;0.77;;
32788;SDS011;19141;48.980;8.410;2024-02-26T08:10:08;0.80;;;0.80;;
32788;SDS011;19141;48.980;8.410;2024-02-26T08:12:33;1.50;;;0.65;;
32788;SDS011;19141;48.980;8.410;2024-02-26T08:14:59;0.75;;;0.70;;
32788;SDS011;19141;48.980;8.410;2024-02-26T08:17:25;1.75;;;0.80;;
32788;SDS011;19141;48.980;8.410;2024-02-26T08:19:52;2.03;;;0.90;;
32788;SDS011;19141;48.980;8.410;2024-02-26T08:22:17;0.60;;;0.60;;
32788;SDS011;19141;48.980;8.410;2024-02-26T08:24:43;1.00;;;0.60;;
32788;SDS011;19141;48.980;8.410;2024-02-26T08:27:08;1.70;;;0.93;;
32788;SDS011;19141;48.980;8.410;2024-02-26T08:29:34;1.13;;;0.68;;
32788;SDS011;19141;48.980;8.410;2024-02-26T08:32:00;1.63;;;1.08;;
32788;SDS011;19141;48.980;8.410;2024-02-26T08:34:25;0.93;;;0.70;;
32788;SDS011;19141;48.980;8.410;2024-02-26T08:36:51;0.70;;;0.63;;
32788;SDS011;19141;48.980;8.410;2024-02-26T08:39:17;1.60;;;0.80;;
32788;SDS011;19141;48.980;8.410;2024-02-26T08:41:43;0.73;;;0.63;;
32788;SDS011;19141;48.980;8.410;2024-02-26T08:44:09;1.05;;;0.60;;
32788;SDS011;19141;48.980;8.410;2024-02-26T08:46:34;1.27;;;0.90;;
32788;SDS011;19141;48.980;8.410;2024-02-26T08:49:00;0.82;;;0.50;;
32788;SDS011;19141;48.980;8.410;2024-02-26T08:51:25;0.45;;;0.45;;
32788;SDS011;19141;48.980;8.410;2024-02-26T08:53:51;1.85;;;0.55;;
32788;SDS011;19141;48.980;8.410;2024-02-26T08:56:16;0.93;;;0.70;;
32788;SDS011;19141;48.980;8.410;2024-02-26T08:58:42;0.70;;;0.60;;
32788;SDS011;19141;48.980;8.410;2024-02-26T09:01:08;2.80;;;0.90;;
32788;SDS011;19141;48.980;8.410;2024-02-26T09:03:34;0.73;;;0.57;;
32788;SDS011;19141;48.980;8.410;2024-02-26T09:05:59;0.70;;;0.60;;
32788;SDS011;19141;48.980;8.410;2024-02-26T09:08:25;2.00;;;0.80;;
32788;SDS011;19141;48.980;8.410;2024-02-26T09:10:50;3.30;;;0.68;;
32788;SDS011;19141;48.980;8.410;2024-02-26T09:13:16;0.77;;;0.60;;
32788;SDS011;19141;48.980;8.410;2024-02-26T09:15:41;0.60;;;0.50;;
32788;SDS011;19141;48.980;8.410;2024-02-26T09:18:06;1.23;;;0.70;;
32788;SDS011;19141;48.980;8.410;2024-02-26T09:20:32;0.47;;;0.47;;
32788;SDS011;19141;48.980;8.410;2024-02-26T09:22:57;0.77;;;0.60;;
32788;SDS011;19141;48.980;8.410;2024-02-26T09:25:22;0.80;;;0.60;;
32788;SDS011;19141;48.980;8.410;2024-02-26T09:27:48;0.82;;;0.68;;
32788;SDS011;19141;48.980;8.410;2024-02-26T09:30:13;1.48;;;0.70;;
32788;SDS011;19141;48.980;8.410;2024-02-26T09:32:39;1.05;;;0.55;;
32788;SDS011;19141;48.980;8.410;2024-02-26T09:35:05;0.57;;;0.50;;
32788;SDS011;19141;48.980;8.410;2024-02-26T09:37:31;1.67;;;0.80;;
32788;SDS011;19141;48.980;8.410;2024-02-26T09:39:58;0.50;;;0.47;;
32788;SDS011;19141;48.980;8.410;2024-02-26T09:42:25;1.02;;;0.60;;
32788;SDS011;19141;48.980;8.410;2024-02-26T09:44:51;0.85;;;0.65;;
32788;SDS011;19141;48.980;8.410;2024-02-26T09:47:20;1.48;;;0.57;;
32788;SDS011;19141;48.980;8.410;2024-02-26T09:49:48;0.80;;;0.70;;
32788;SDS011;19141;48.980;8.410;2024-02-26T09:52:14;0.55;;;0.43;;
32788;SDS011;19141;48.980;8.410;2024-02-26T09:54:41;0.67;;;0.50;;
32788;SDS011;19141;48.980;8.410;2024-02-26T09:57:06;0.60;;;0.50;;
32788;SDS011;19141;48.980;8.410;2024-02-26T09:59:39;1.08;;;0.75;;
32788;SDS011;19141;48.980;8.410;2024-02-26T10:02:08;1.05;;;0.75;;
32788;SDS011;19141;48.980;8.410;2024-02-26T10:04:36;0.77;;;0.60;;
32788;SDS011;19141;48.980;8.410;2024-02-26T10:07:01;0.85;;;0.60;;
32788;SDS011;19141;48.980;8.410;2024-02-26T10:09:29;1.07;;;0.40;;
32788;SDS011;19141;48.980;8.410;2024-02-26T10:11:56;0.77;;;0.40;;
32788;SDS011;19141;48.980;8.410;2024-02-26T10:14:21;0.80;;;0.70;;
32788;SDS011;19141;48.980;8.410;2024-02-26T10:16:47;1.05;;;0.70;;
32788;SDS011;19141;48.980;8.410;2024-02-26T10:19:27;0.80;;;0.70;;
32788;SDS011;19141;48.980;8.410;2024-02-26T10:21:57;0.60;;;0.50;;
32788;SDS011;19141;48.980;8.410;2024-02-26T10:24:26;0.47;;;0.47;;
32788;SDS011;19141;48.980;8.410;2024-02-26T10:26:54;0.60;;;0.50;;
32788;SDS011;19141;48.980;8.410;2024-02-26T10:29:20;1.77;;;0.77;;
32788;SDS011;19141;48.980;8.410;2024-02-26T10:31:46;0.45;;;0.40;;
32788;SDS011;19141;48.980;8.410;2024-02-26T10:34:12;0.40;;;0.40;;
32788;SDS011;19141;48.980;8.410;2024-02-26T10:36:38;0.68;;;0.65;;
32788;SDS011;19141;48.980;8.410;2024-02-26T10:39:06;1.13;;;0.60;;
32788;SDS011;19141;48.980;8.410;2024-02-26T10:41:33;0.73;;;0.73;;
32788;SDS011;19141;48.980;8.410;2024-02-26T10:43:59;0.75;;;0.57;;
32788;SDS011;19141;48.980;8.410;2024-02-26T10:46:25;1.00;;;0.50;;
32788;SDS011;19141;48.980;8.410;2024-02-26T10:48:51;0.65;;;0.60;;
32788;SDS011;19141;48.980;8.410;2024-02-26T10:51:28;1.05;;;0.82;;
32788;SDS011;19141;48.980;8.410;2024-02-26T10:53:57;0.60;;;0.55;;
32788;SDS011;19141;48.980;8.410;2024-02-26T10:56:27;1.00;;;0.60;;
32788;SDS011;19141;48.980;8.410;2024-02-26T10:58:56;0.60;;;0.60;;
32788;SDS011;19141;48.980;8.410;2024-02-26T11:01:22;0.50;;;0.50;;
32788;SDS011;19141;48.980;8.410;2024-02-26T11:03:50;0.68;;;0.60;;
32788;SDS011;19141;48.980;8.410;2024-02-26T11:06:17;0.70;;;0.50;;
32788;SDS011;19141;48.980;8.410;2024-02-26T11:08:47;0.80;;;0.60;;
32788;SDS011;19141;48.980;8.410;2024-02-26T11:11:14;0.30;;;0.28;;
32788;SDS011;19141;48.980;8.410;2024-02-26T11:13:42;0.40;;;0.40;;
32788;SDS011;19141;48.980;8.410;2024-02-26T11:16:13;0.40;;;0.40;;
32788;SDS011;19141;48.980;8.410;2024-02-26T11:18:39;0.77;;;0.47;;
32788;SDS011;19141;48.980;8.410;2024-02-26T11:21:06;0.40;;;0.40;;
32788;SDS011;19141;48.980;8.410;2024-02-26T11:23:33;0.70;;;0.50;;
32788;SDS011;19141;48.980;8.410;2024-02-26T11:26:02;0.40;;;0.38;;
32788;SDS011;19141;48.980;8.410;2024-02-26T11:28:30;0.40;;;0.40;;
32788;SDS011;19141;48.980;8.410;2024-02-26T11:30:59;0.47;;;0.40;;
32788;SDS011;19141;48.980;8.410;2024-02-26T11:33:25;0.65;;;0.30;;
32788;SDS011;19141;48.980;8.410;2024-02-26T11:35:52;1.35;;;0.60;;
32788;SDS011;19141;48.980;8.410;2024-02-26T11:38:22;0.30;;;0.30;;
32788;SDS011;19141;48.980;8.410;2024-02-26T11:40:49;0.40;;;0.40;;
32788;SDS011;19141;48.980;8.410;2024-02-26T11:43:18;0.55;;;0.40;;
32788;SDS011;19141;48.980;8.410;2024-02-26T11:45:48;0.82;;;0.50;;
32788;SDS011;19141;48.980;8.410;2024-02-26T11:48:19;0.40;;;0.40;;
32788;SDS011;19141;48.980;8.410;2024-02-26T11:50:47;0.95;;;0.40;;
32788;SDS011;19141;48.980;8.410;2024-02-26T11:53:32;0.52;;;0.50;;
32788;SDS011;19141;48.980;8.410;2024-02-26T11:58:44;1.17;;;0.50;;
32788;SDS011;19141;48.980;8.410;2024-02-26T12:04:13;0.57;;;0.50;;
32788;SDS011;19141;48.980;8.410;2024-02-26T12:06:50;0.30;;;0.30;;
32788;SDS011;19141;48.980;8.410;2024-02-26T12:11:59;0.45;;;0.40;;
32788;SDS011;19141;48.980;8.410;2024-02-26T12:14:26;0.60;;;0.43;;
32788;SDS011;19141;48.980;8.410;2024-02-26T12:16:52;1.48;;;0.57;;
32788;SDS011;19141;48.980;8.410;2024-02-26T12:19:18;2.08;;;0.65;;
32788;SDS011;19141;48.980;8.410;2024-02-26T12:21:43;0.90;;;0.70;;
32788;SDS011;19141;48.980;8.410;2024-02-26T12:24:13;1.08;;;0.70;;
32788;SDS011;19141;48.980;8.410;2024-02-26T12:26:40;1.08;;;0.68;;
32788;SDS011;19141;48.980;8.410;2024-02-26T12:29:06;1.02;;;0.73;;
32788;SDS011;19141;48.980;8.410;2024-02-26T12:31:33;1.53;;;0.80;;
32788;SDS011;19141;48.980;8.410;2024-02-26T12:34:01;0.60;;;0.60;;
32788;SDS011;19141;48.980;8.410;2024-02-26T12:36:27;0.55;;;0.40;;
32788;SDS011;19141;48.980;8.410;2024-02-26T12:38:53;0.57;;;0.40;;
32788;SDS011;19141;48.980;8.410;2024-02-26T12:41:18;0.68;;;0.60;;
32788;SDS011;19141;48.980;8.410;2024-02-26T12:43:46;0.83;;;0.60;;
32788;SDS011;19141;48.980;8.410;2024-02-26T12:46:11;1.30;;;0.60;;
32788;SDS011;19141;48.980;8.410;2024-02-26T12:48:38;0.52;;;0.50;;
32788;SDS011;19141;48.980;8.410;2024-02-26T12:51:04;1.27;;;0.57;;
32788;SDS011;19141;48.980;8.410;2024-02-26T12:53:31;0.47;;;0.30;;
32788;SDS011;19141;48.980;8.410;2024-02-26T12:55:57;0.60;;;0.50;;
32788;SDS011;19141;48.980;8.410;2024-02-26T12:58:23;0.73;;;0.50;;
32788;SDS011;19141;48.980;8.410;2024-02-26T13:00:53;0.40;;;0.40;;
32788;SDS011;19141;48.980;8.410;2024-02-26T13:03:20;1.00;;;0.38;;
32788;SDS011;19141;48.980;8.410;2024-02-26T13:05:47;0.60;;;0.50;;
32788;SDS011;19141;48.980;8.410;2024-02-26T13:08:20;0.30;;;0.30;;
32788;SDS011;19141;48.980;8.410;2024-02-26T13:10:46;0.30;;;0.22;;
32788;SDS011;19141;48.980;8.410;2024-02-26T13:13:14;0.45;;;0.40;;
32788;SDS011;19141;48.980;8.410;2024-02-26T13:15:41;0.50;;;0.30;;
32788;SDS011;19141;48.980;8.410;2024-02-26T13:18:09;0.73;;;0.50;;
32788;SDS011;19141;48.980;8.410;2024-02-26T13:20:36;1.00;;;0.40;;
32788;SDS011;19141;48.980;8.410;2024-02-26T13:25:27;0.20;;;0.20;;
32788;SDS011;19141;48.980;8.410;2024-02-26T13:28:05;0.40;;;0.38;;
32788;SDS011;19141;48.980;8.410;2024-02-26T13:30:34;1.08;;;0.30;;
32788;SDS011;19141;48.980;8.410;2024-02-26T13:33:07;0.68;;;0.40;;
32788;SDS011;19141;48.980;8.410;2024-02-26T13:35:36;0.50;;;0.43;;
32788;SDS011;19141;48.980;8.410;2024-02-26T13:38:04;0.68;;;0.50;;
32788;SDS011;19141;48.980;8.410;2024-02-26T13:40:29;0.85;;;0.57;;
32788;SDS011;19141;48.980;8.410;2024-02-26T13:42:55;0.88;;;0.80;;
32788;SDS011;19141;48.980;8.410;2024-02-26T13:45:20;0.57;;;0.45;;
32788;SDS011;19141;48.980;8.410;2024-02-26T13:47:45;0.60;;;0.60;;
32788;SDS011;19141;48.980;8.410;2024-02-26T13:50:11;0.45;;;0.40;;
32788;SDS011;19141;48.980;8.410;2024-02-26T13:52:36;0.60;;;0.40;;
32788;SDS011;19141;48.980;8.410;2024-02-26T13:55:02;0.57;;;0.40;;
32788;SDS011;19141;48.980;8.410;2024-02-26T13:57:28;0.50;;;0.50;;
32788;SDS011;19141;48.980;8.410;2024-02-26T13:59:54;0.85;;;0.50;;
32788;SDS011;19141;48.980;8.410;2024-02-26T14:02:20;0.57;;;0.57;;
32788;SDS011;19141;48.980;8.410;2024-02-26T14:04:46;0.50;;;0.50;;
32788;SDS011;19141;48.980;8.410;2024-02-26T14:07:12;0.75;;;0.47;;
32788;SDS011;19141;48.980;8.410;2024-02-26T14:09:38;0.60;;;0.55;;
32788;SDS011;19141;48.980;8.410;2024-02-26T14:12:03;0.70;;;0.40;;
32788;SDS011;19141;48.980;8.410;2024-02-26T14:14:29;0.55;;;0.47;;
32788;SDS011;19141;48.980;8.410;2024-02-26T14:16:57;0.32;;;0.32;;
32788;SDS011;19141;48.980;8.410;2024-02-26T14:19:23;0.40;;;0.40;;
32788;SDS011;19141;48.980;8.410;2024-02-26T14:21:49;0.95;;;0.60;;
32788;SDS011;19141;48.980;8.410;2024-02-26T14:24:14;0.60;;;0.60;;
32788;SDS011;19141;48.980;8.410;2024-02-26T14:26:40;1.00;;;0.60;;
32788;SDS011;19141;48.980;8.410;2024-02-26T14:29:05;0.52;;;0.52;;
32788;SDS011;19141;48.980;8.410;2024-02-26T14:31:32;1.98;;;0.73;;
32788;SDS011;19141;48.980;8.410;2024-02-26T14:33:57;0.57;;;0.50;;
32788;SDS011;19141;48.980;8.410;2024-02-26T14:36:23;0.52;;;0.52;;
32788;SDS011;19141;48.980;8.410;2024-02-26T14:38:49;0.60;;;0.30;;
32788;SDS011;19141;48.980;8.410;2024-02-26T14:41:14;2.90;;;0.68;;
32788;SDS011;19141;48.980;8.410;2024-02-26T14:43:40;1.13;;;0.38;;
32788;SDS011;19141;48.980;8.410;2024-02-26T14:46:05;1.88;;;0.47;;
32788;SDS011;19141;48.980;8.410;2024-02-26T14:48:31;0.55;;;0.50;;
32788;SDS011;19141;48.980;8.410;2024-02-26T14:50:57;0.60;;;0.43;;
32788;SDS011;19141;48.980;8.410;2024-02-26T14:53:24;0.65;;;0.60;;
32788;SDS011;19141;48.980;8.410;2024-02-26T14:55:49;1.17;;;0.68;;
32788;SDS011;19141;48.980;8.410;2024-02-26T14:58:15;0.47;;;0.40;;
32788;SDS011;19141;48.980;8.410;2024-02-26T15:00:41;0.35;;;0.32;;
32788;SDS011;19141;48.980;8.410;2024-02-26T15:03:06;1.15;;;0.40;;
32788;SDS011;19141;48.980;8.410;2024-02-26T15:05:32;0.40;;;0.40;;
32788;SDS011;19141;48.980;8.410;2024-02-26T15:07:58;0.75;;;0.52;;
32788;SDS011;19141;48.980;8.410;2024-02-26T15:10:24;0.40;;;0.40;;
32788;SDS011;19141;48.980;8.410;2024-02-26T15:12:50;0.95;;;0.70;;
32788;SDS011;19141;48.980;8.410;2024-02-26T15:15:19;3.65;;;0.70;;
32788;SDS011;19141;48.980;8.410;2024-02-26T15:17:45;0.85;;;0.60;;
32788;SDS011;19141;48.980;8.410;2024-02-26T15:20:11;0.68;;;0.68;;
32788;SDS011;19141;48.980;8.410;2024-02-26T15:22:36;0.60;;;0.60;;
32788;SDS011;19141;48.980;8.410;2024-02-26T15:25:02;0.65;;;0.40;;
32788;SDS011;19141;48.980;8.410;2024-02-26T15:27:27;0.90;;;0.63;;
32788;SDS011;19141;48.980;8.410;2024-02-26T15:29:53;0.30;;;0.30;;
32788;SDS011;19141;48.980;8.410;2024-02-26T15:32:23;1.35;;;0.50;;
32788;SDS011;19141;48.980;8.410;2024-02-26T15:34:50;0.60;;;0.57;;
32788;SDS011;19141;48.980;8.410;2024-02-26T15:37:16;0.45;;;0.40;;
32788;SDS011;19141;48.980;8.410;2024-02-26T15:39:41;0.77;;;0.55;;
32788;SDS011;19141;48.980;8.410;2024-02-26T15:42:06;1.40;;;0.90;;
32788;SDS011;19141;48.980;8.410;2024-02-26T15:44:32;0.98;;;0.75;;
32788;SDS011;19141;48.980;8.410;2024-02-26T15:46:57;1.45;;;0.57;;
32788;SDS011;19141;48.980;8.410;2024-02-26T15:49:24;0.52;;;0.50;;
32788;SDS011;19141;48.980;8.410;2024-02-26T15:51:49;1.75;;;0.80;;
32788;SDS011;19141;48.980;8.410;2024-02-26T15:54:14;0.63;;;0.55;;
32788;SDS011;19141;48.980;8.410;2024-02-26T15:56:40;0.93;;;0.70;;
32788;SDS011;19141;48.980;8.410;2024-02-26T15:59:06;0.82;;;0.55;;
32788;SDS011;19141;48.980;8.410;2024-02-26T16:01:31;1.63;;;0.52;;
32788;SDS011;19141;48.980;8.410;2024-02-26T16:03:57;2.40;;;0.70;;
32788;SDS011;19141;48.980;8.410;2024-02-26T16:06:28;0.80;;;0.60;;
32788;SDS011;19141;48.980;8.410;2024-02-26T16:08:58;1.10;;;0.70;;
32788;SDS011;19141;48.980;8.410;2024-02-26T16:11:24;1.27;;;0.70;;
32788;SDS011;19141;48.980;8.410;2024-02-26T16:13:50;0.80;;;0.60;;
32788;SDS011;19141;48.980;8.410;2024-02-26T16:16:25;0.82;;;0.40;;
32788;SDS011;19141;48.980;8.410;2024-02-26T16:18:57;0.50;;;0.40;;
32788;SDS011;19141;48.980;8.410;2024-02-26T16:21:30;0.50;;;0.50;;
32788;SDS011;19141;48.980;8.410;2024-02-26T16:23:55;0.45;;;0.40;;
32788;SDS011;19141;48.980;8.410;2024-02-26T16:26:20;0.30;;;0.30;;
32788;SDS011;19141;48.980;8.410;2024-02-26T16:28:46;0.93;;;0.52;;
32788;SDS011;19141;48.980;8.410;2024-02-26T16:31:11;0.90;;;0.60;;
32788;SDS011;19141;48.980;8.410;2024-02-26T16:33:37;0.57;;;0.55;;
32788;SDS011;19141;48.980;8.410;2024-02-26T16:36:02;0.60;;;0.43;;
32788;SDS011;19141;48.980;8.410;2024-02-26T16:38:28;0.95;;;0.50;;
32788;SDS011;19141;48.980;8.410;2024-02-26T16:40:53;1.33;;;0.60;;
32788;SDS011;19141;48.980;8.410;2024-02-26T16:43:18;0.80;;;0.60;;
32788;SDS011;19141;48.980;8.410;2024-02-26T16:45:44;1.00;;;0.73;;
32788;SDS011;19141;48.980;8.410;2024-02-26T16:48:09;1.25;;;0.85;;
32788;SDS011;19141;48.980;8.410;2024-02-26T16:50:35;0.80;;;0.60;;
32788;SDS011;19141;48.980;8.410;2024-02-26T16:53:00;2.88;;;1.75;;
32788;SDS011;19141;48.980;8.410;2024-02-26T16:55:25;2.08;;;0.80;;
32788;SDS011;19141;48.980;8.410;2024-02-26T16:57:52;0.88;;;0.60;;
32788;SDS011;19141;48.980;8.410;2024-02-26T17:00:18;1.58;;;0.90;;
32788;SDS011;19141;48.980;8.410;2024-02-26T17:02:44;1.55;;;0.52;;
32788;SDS011;19141;48.980;8.410;2024-02-26T17:05:11;0.60;;;0.60;;
32788;SDS011;19141;48.980;8.410;2024-02-26T17:07:38;1.05;;;0.50;;
32788;SDS011;19141;48.980;8.410;2024-02-26T17:10:06;0.98;;;0.85;;
32788;SDS011;19141;48.980;8.410;2024-02-26T17:12:32;1.73;;;0.90;;
32788;SDS011;19141;48.980;8.410;2024-02-26T17:14:58;1.27;;;0.65;;
32788;SDS011;19141;48.980;8.410;2024-02-26T17:17:23;0.60;;;0.60;;
32788;SDS011;19141;48.980;8.410;2024-02-26T17:19:48;1.13;;;0.80;;
32788;SDS011;19141;48.980;8.410;2024-02-26T17:22:14;1.00;;;0.70;;
32788;SDS011;19141;48.980;8.410;2024-02-26T17:24:40;2.90;;;1.95;;
32788;SDS011;19141;48.980;8.410;2024-02-26T17:27:06;1.33;;;0.80;;
32788;SDS011;19141;48.980;8.410;2024-02-26T17:29:31;0.90;;;0.70;;
32788;SDS011;19141;48.980;8.410;2024-02-26T17:31:59;0.55;;;0.55;;
32788;SDS011;19141;48.980;8.410;2024-02-26T17:34:24;1.58;;;0.70;;
32788;SDS011;19141;48.980;8.410;2024-02-26T17:36:50;2.45;;;0.80;;
32788;SDS011;19141;48.980;8.410;2024-02-26T17:39:15;1.67;;;0.93;;
32788;SDS011;19141;48.980;8.410;2024-02-26T17:41:42;1.30;;;0.70;;
32788;SDS011;19141;48.980;8.410;2024-02-26T17:44:07;0.82;;;0.80;;
32788;SDS011;19141;48.980;8.410;2024-02-26T17:46:32;1.48;;;0.90;;
32788;SDS011;19141;48.980;8.410;2024-02-26T17:48:58;1.02;;;0.70;;
32788;SDS011;19141;48.980;8.410;2024-02-26T17:51:23;1.27;;;0.70;;
32788;SDS011;19141;48.980;8.410;2024-02-26T17:53:49;1.13;;;0.70;;
32788;SDS011;19141;48.980;8.410;2024-02-26T17:56:14;2.78;;;0.95;;
32788;SDS011;19141;48.980;8.410;2024-02-26T17:58:41;0.80;;;0.80;;
32788;SDS011;19141;48.980;8.410;2024-02-26T18:01:07;1.45;;;0.82;;
32788;SDS011;19141;48.980;8.410;2024-02-26T18:03:33;1.13;;;0.98;;
32788;SDS011;19141;48.980;8.410;2024-02-26T18:05:59;1.02;;;0.95;;
32788;SDS011;19141;48.980;8.410;2024-02-26T18:08:26;0.80;;;0.73;;
32788;SDS011;19141;48.980;8.410;2024-02-26T18:10:52;1.30;;;0.80;;
32788;SDS011;19141;48.980;8.410;2024-02-26T18:13:17;2.95;;;1.23;;
32788;SDS011;19141;48.980;8.410;2024-02-26T18:15:43;1.60;;;1.20;;
32788;SDS011;19141;48.980;8.410;2024-02-26T18:18:09;1.33;;;0.95;;
32788;SDS011;19141;48.980;8.410;2024-02-26T18:20:35;1.25;;;0.98;;
32788;SDS011;19141;48.980;8.410;2024-02-26T18:23:00;2.55;;;1.13;;
32788;SDS011;19141;48.980;8.410;2024-02-26T18:25:25;1.90;;;1.23;;
32788;SDS011;19141;48.980;8.410;2024-02-26T18:27:51;1.50;;;1.05;;
32788;SDS011;19141;48.980;8.410;2024-02-26T18:30:17;1.38;;;1.00;;
32788;SDS011;19141;48.980;8.410;2024-02-26T18:32:43;1.63;;;1.20;;
32788;SDS011;19141;48.980;8.410;2024-02-26T18:35:09;2.10;;;1.23;;
32788;SDS011;19141;48.980;8.410;2024-02-26T18:37:35;1.77;;;1.25;;
32788;SDS011;19141;48.980;8.410;2024-02-26T18:40:01;3.63;;;1.45;;
32788;SDS011;19141;48.980;8.410;2024-02-26T18:42:26;2.58;;;1.67;;
32788;SDS011;19141;48.980;8.410;2024-02-26T18:44:54;1.80;;;1.38;;
32788;SDS011;19141;48.980;8.410;2024-02-26T18:49:48;2.20;;;1.30;;
32788;SDS011;19141;48.980;8.410;2024-02-26T18:52:14;1.65;;;1.30;;
32788;SDS011;19141;48.980;8.410;2024-02-26T18:54:40;2.40;;;1.55;;
32788;SDS011;19141;48.980;8.410;2024-02-26T18:57:08;3.13;;;1.50;;
32788;SDS011;19141;48.980;8.410;2024-02-26T18:59:33;3.03;;;1.90;;
32788;SDS011;19141;48.980;8.410;2024-02-26T19:02:00;2.17;;;1.48;;
32788;SDS011;19141;48.980;8.410;2024-02-26T19:04:26;2.08;;;1.70;;
32788;SDS011;19141;48.980;8.410;2024-02-26T19:06:52;2.85;;;1.90;;
32788;SDS011;19141;48.980;8.410;2024-02-26T19:09:19;3.72;;;2.10;;
32788;SDS011;19141;48.980;8.410;2024-02-26T19:11:45;3.55;;;2.08;;
32788;SDS011;19141;48.980;8.410;2024-02-26T19:14:11;3.03;;;2.22;;
32788;SDS011;19141;48.980;8.410;2024-02-26T19:16:38;2.47;;;1.83;;
32788;SDS011;19141;48.980;8.410;2024-02-26T19:19:04;3.72;;;2.38;;
32788;SDS011;19141;48.980;8.410;2024-02-26T19:23:58;2.60;;;1.95;;
32788;SDS011;19141;48.980;8.410;2024-02-26T19:26:23;3.83;;;2.20;;
32788;SDS011;19141;48.980;8.410;2024-02-26T19:28:48;3.30;;;2.08;;
32788;SDS011;19141;48.980;8.410;2024-02-26T19:31:14;4.03;;;2.80;;
32788;SDS011;19141;48.980;8.410;2024-02-26T19:33:39;6.25;;;2.42;;
32788;SDS011;19141;48.980;8.410;2024-02-26T19:36:05;4.35;;;2.45;;
32788;SDS011;19141;48.980;8.410;2024-02-26T19:38:31;3.72;;;2.70;;
32788;SDS011;19141;48.980;8.410;2024-02-26T19:40:57;3.78;;;2.60;;
32788;SDS011;19141;48.980;8.410;2024-02-26T19:43:22;5.45;;;2.30;;
32788;SDS011;19141;48.980;8.410;2024-02-26T19:45:48;6.70;;;2.65;;
32788;SDS011;19141;48.980;8.410;2024-02-26T19:48:13;4.13;;;2.83;;
32788;SDS011;19141;48.980;8.410;2024-02-26T19:50:39;3.78;;;2.47;;
32788;SDS011;19141;48.980;8.410;2024-02-26T19:53:05;4.63;;;2.70;;
32788;SDS011;19141;48.980;8.410;2024-02-26T19:55:31;3.90;;;2.42;;
32788;SDS011;19141;48.980;8.410;2024-02-26T19:57:56;4.63;;;2.20;;
32788;SDS011;19141;48.980;8.410;2024-02-26T20:00:22;3.80;;;2.55;;
32788;SDS011;19141;48.980;8.410;2024-02-26T20:02:48;3.92;;;2.70;;
32788;SDS011;19141;48.980;8.410;2024-02-26T20:05:13;3.22;;;2.40;;
32788;SDS011;19141;48.980;8.410;2024-02-26T20:07:39;3.58;;;2.15;;
32788;SDS011;19141;48.980;8.410;2024-02-26T20:10:04;3.95;;;2.47;;
32788;SDS011;19141;48.980;8.410;2024-02-26T20:12:30;3.97;;;2.60;;
32788;SDS011;19141;48.980;8.410;2024-02-26T20:14:56;3.35;;;2.25;;
32788;SDS011;19141;48.980;8.410;2024-02-26T20:17:21;3.72;;;2.45;;
32788;SDS011;19141;48.980;8.410;2024-02-26T20:19:47;5.57;;;2.53;;